Time;durP1;ratioP1;P1;durP2;ratioP2;P2;SDS_P1;SDS_P2;PMS_P1;PMS_P2;Temp;Humidity;BMP_temperature;BMP_pressure;BME280_temperature;BME280_humidity;BME280_pressure;Samples;Min_cycle;Max_cycle;Signal;HPM_P1;HPM_P2
2023/07/12 00:00:42;;;;;;;1.45;1.35;;;;;;;;;;5108903;28;20200;-31
2023/07/12 00:03:09;;;;;;;2.25;1.67;;;;;;;;;;5093188;28;20209;-31
2023/07/12 00:05:36;;;;;;;2.47;1.40;;;;;;;;;;5086764;28;20212;-30
2023/07/12 00:08:03;;;;;;;2.97;1.65;;;;;;;;;;5090588;28;20228;-32
2023/07/12 00:10:31;;;;;;;1.90;1.38;;;;;;;;;;5085667;28;20211;-30
2023/07/12 00:13:00;;;;;;;2.70;1.30;;;;;;;;;;5090167;28;20200;-30
2023/07/12 00:15:29;;;;;;;2.13;1.30;;;;;;;;;;5091075;28;20193;-30
2023/07/12 00:17:57;;;;;;;1.95;1.40;;;;;;;;;;5088217;28;20315;-30
2023/07/12 00:20:28;;;;;;;1.48;1.38;;;;;;;;;;5076144;28;20208;-29
2023/07/12 00:22:56;;;;;;;1.70;1.35;;;;;;;;;;5090011;28;20213;-30
2023/07/12 00:25:30;;;;;;;1.88;1.42;;;;;;;;;;5086279;28;20230;-30
2023/07/12 00:27:57;;;;;;;1.58;1.35;;;;;;;;;;5089935;28;20227;-30
2023/07/12 00:30:27;;;;;;;1.45;1.35;;;;;;;;;;5091219;28;20208;-32
2023/07/12 00:32:57;;;;;;;2.40;1.40;;;;;;;;;;5089413;28;20204;-30
2023/07/12 00:35:25;;;;;;;1.67;1.42;;;;;;;;;;5087696;28;20197;-30
2023/07/12 00:37:53;;;;;;;3.53;1.40;;;;;;;;;;5089910;28;20227;-30
2023/07/12 00:40:24;;;;;;;2.72;1.80;;;;;;;;;;5084768;28;20208;-30
2023/07/12 00:42:54;;;;;;;4.57;1.77;;;;;;;;;;5090151;28;20226;-28
2023/07/12 00:45:21;;;;;;;1.45;1.30;;;;;;;;;;5090203;28;20223;-32
2023/07/12 00:47:50;;;;;;;2.33;1.38;;;;;;;;;;5090029;28;20711;-29
2023/07/12 00:50:19;;;;;;;2.58;1.35;;;;;;;;;;5080350;28;20288;-30
2023/07/12 00:52:46;;;;;;;1.50;1.40;;;;;;;;;;5087869;28;20204;-31
2023/07/12 00:55:36;;;;;;;1.77;1.40;;;;;;;;;;5083898;28;20204;-30
2023/07/12 00:58:03;;;;;;;1.60;1.27;;;;;;;;;;5084206;28;20224;-29
2023/07/12 01:00:31;;;;;;;4.97;1.70;;;;;;;;;;5092577;28;20197;-29
2023/07/12 01:03:00;;;;;;;1.35;1.20;;;;;;;;;;5090771;28;20200;-28
2023/07/12 01:05:28;;;;;;;1.55;1.20;;;;;;;;;;5093291;28;20235;-28
2023/07/12 01:07:55;;;;;;;1.73;1.38;;;;;;;;;;5088768;28;20223;-29
2023/07/12 01:10:22;;;;;;;1.25;1.20;;;;;;;;;;5078170;28;20211;-30
2023/07/12 01:12:50;;;;;;;1.42;1.27;;;;;;;;;;5085766;28;20212;-30
2023/07/12 01:15:17;;;;;;;1.80;1.27;;;;;;;;;;5089201;28;20199;-30
2023/07/12 01:17:44;;;;;;;1.63;1.10;;;;;;;;;;5089055;28;20227;-28
2023/07/12 01:20:13;;;;;;;2.70;1.30;;;;;;;;;;5082697;28;20205;-30
2023/07/12 01:22:42;;;;;;;2.28;1.42;;;;;;;;;;5083174;28;20217;-30
2023/07/12 01:25:09;;;;;;;2.33;1.25;;;;;;;;;;5094230;28;20235;-31
2023/07/12 01:27:36;;;;;;;1.38;1.27;;;;;;;;;;5085847;28;20244;-28
2023/07/12 01:30:04;;;;;;;1.45;1.15;;;;;;;;;;5102425;28;20206;-30
2023/07/12 01:32:32;;;;;;;9.45;1.52;;;;;;;;;;5111027;28;20214;-30
2023/07/12 01:34:59;;;;;;;1.92;1.35;;;;;;;;;;5088769;28;20207;-29
2023/07/12 01:37:26;;;;;;;1.40;1.30;;;;;;;;;;5087196;28;20210;-30
2023/07/12 01:39:55;;;;;;;5.97;1.42;;;;;;;;;;5089344;28;20307;-31
2023/07/12 01:42:22;;;;;;;1.67;1.08;;;;;;;;;;5094172;28;20208;-29
2023/07/12 01:44:49;;;;;;;4.43;1.45;;;;;;;;;;5099587;28;20219;-30
2023/07/12 01:47:16;;;;;;;2.30;1.65;;;;;;;;;;5089062;28;20215;-29
2023/07/12 01:49:43;;;;;;;3.10;1.40;;;;;;;;;;5084048;28;20560;-29
2023/07/12 01:52:11;;;;;;;2.10;1.55;;;;;;;;;;5097939;28;20206;-32
2023/07/12 01:54:38;;;;;;;3.83;2.05;;;;;;;;;;5086807;28;20207;-29
2023/07/12 01:57:07;;;;;;;2.35;1.65;;;;;;;;;;5093249;28;20199;-29
2023/07/12 01:59:34;;;;;;;3.58;1.38;;;;;;;;;;5101113;28;20612;-31
2023/07/12 02:02:01;;;;;;;4.88;1.40;;;;;;;;;;5089285;28;20211;-30
2023/07/12 02:04:28;;;;;;;1.73;1.50;;;;;;;;;;5068264;28;20221;-30
2023/07/12 02:06:55;;;;;;;2.97;1.35;;;;;;;;;;5060860;28;20302;-31
2023/07/12 02:09:22;;;;;;;2.88;1.30;;;;;;;;;;5068221;28;20220;-29
2023/07/12 02:11:49;;;;;;;2.88;1.25;;;;;;;;;;5057553;28;20205;-30
2023/07/12 02:14:18;;;;;;;1.55;1.30;;;;;;;;;;5068758;28;20207;-33
2023/07/12 02:16:45;;;;;;;1.30;1.20;;;;;;;;;;5068342;28;20217;-33
2023/07/12 02:19:12;;;;;;;4.05;1.40;;;;;;;;;;5063559;28;20231;-28
2023/07/12 02:21:39;;;;;;;2.17;1.20;;;;;;;;;;5065106;28;20206;-31
2023/07/12 02:24:06;;;;;;;1.38;1.27;;;;;;;;;;5068573;28;20208;-30
2023/07/12 02:26:34;;;;;;;1.42;1.20;;;;;;;;;;5059937;28;20232;-31
2023/07/12 02:29:01;;;;;;;3.55;1.45;;;;;;;;;;5060744;28;20223;-31
2023/07/12 02:31:31;;;;;;;3.15;1.40;;;;;;;;;;5068832;28;20212;-30
2023/07/12 02:33:58;;;;;;;1.85;1.20;;;;;;;;;;5064523;28;20208;-29
2023/07/12 02:36:25;;;;;;;2.90;1.55;;;;;;;;;;5058775;28;20204;-29
2023/07/12 02:38:53;;;;;;;2.67;1.25;;;;;;;;;;5068537;28;20228;-31
2023/07/12 02:41:20;;;;;;;1.42;1.27;;;;;;;;;;5064476;28;20207;-28
2023/07/12 02:43:48;;;;;;;1.77;1.30;;;;;;;;;;5068620;28;20203;-30
2023/07/12 02:46:15;;;;;;;1.77;1.35;;;;;;;;;;5068981;28;20232;-30
2023/07/12 02:48:45;;;;;;;1.77;1.45;;;;;;;;;;5071793;28;20226;-30
2023/07/12 02:51:12;;;;;;;3.40;1.42;;;;;;;;;;5067498;28;20204;-29
2023/07/12 02:53:39;;;;;;;2.70;1.60;;;;;;;;;;5071600;28;20211;-29
2023/07/12 02:56:06;;;;;;;3.05;1.23;;;;;;;;;;5069174;28;20204;-31
2023/07/12 02:58:33;;;;;;;1.63;1.10;;;;;;;;;;5071253;28;20239;-30
2023/07/12 03:01:00;;;;;;;1.83;1.40;;;;;;;;;;5072752;28;20204;-29
2023/07/12 03:03:28;;;;;;;2.60;1.50;;;;;;;;;;5071209;28;20214;-32
2023/07/12 03:05:56;;;;;;;2.58;1.27;;;;;;;;;;5084760;28;20218;-28
2023/07/12 03:08:23;;;;;;;3.70;1.70;;;;;;;;;;5117347;22;20233;-29
2023/07/12 03:10:51;;;;;;;4.50;1.60;;;;;;;;;;5002586;28;20217;-31
2023/07/12 03:13:18;;;;;;;3.70;1.60;;;;;;;;;;5004327;28;20203;-32
2023/07/12 03:15:45;;;;;;;2.95;1.80;;;;;;;;;;5009951;28;20216;-31
2023/07/12 03:18:12;;;;;;;4.32;1.80;;;;;;;;;;5005448;28;20221;-29
2023/07/12 03:20:39;;;;;;;3.53;1.60;;;;;;;;;;5008218;28;20209;-30
2023/07/12 03:23:07;;;;;;;4.32;1.70;;;;;;;;;;5003328;28;20290;-30
2023/07/12 03:25:34;;;;;;;4.28;1.50;;;;;;;;;;4996383;28;20236;-29
2023/07/12 03:28:02;;;;;;;2.03;1.38;;;;;;;;;;5001303;28;20237;-30
2023/07/12 03:30:29;;;;;;;2.10;1.55;;;;;;;;;;5011693;28;20207;-33
2023/07/12 03:32:56;;;;;;;3.15;1.50;;;;;;;;;;5012552;28;20231;-30
2023/07/12 03:35:23;;;;;;;1.35;1.15;;;;;;;;;;5009308;28;20202;-31
2023/07/12 03:37:50;;;;;;;6.00;1.73;;;;;;;;;;4997421;28;20241;-31
2023/07/12 03:40:19;;;;;;;2.28;1.58;;;;;;;;;;4999912;28;20216;-30
2023/07/12 03:42:46;;;;;;;2.10;2.00;;;;;;;;;;4993320;28;20577;-29
2023/07/12 03:45:13;;;;;;;2.13;1.20;;;;;;;;;;5005486;28;20229;-30
2023/07/12 03:47:40;;;;;;;3.55;1.48;;;;;;;;;;5012051;28;20212;-29
2023/07/12 03:50:07;;;;;;;1.90;1.50;;;;;;;;;;5007442;28;20222;-30
2023/07/12 03:52:35;;;;;;;2.30;1.70;;;;;;;;;;5010719;28;20203;-27
2023/07/12 03:55:02;;;;;;;2.00;1.58;;;;;;;;;;4995645;28;20208;-29
2023/07/12 03:57:30;;;;;;;4.90;1.60;;;;;;;;;;4993205;28;20318;-29
2023/07/12 03:59:57;;;;;;;2.28;1.83;;;;;;;;;;5009448;28;20213;-29
2023/07/12 04:02:24;;;;;;;2.38;1.60;;;;;;;;;;5002479;28;20206;-29
2023/07/12 04:04:52;;;;;;;1.70;1.60;;;;;;;;;;5012434;28;20201;-30
2023/07/12 04:07:19;;;;;;;2.20;1.48;;;;;;;;;;5015532;28;20224;-30
2023/07/12 04:09:48;;;;;;;1.77;1.67;;;;;;;;;;5048863;28;20232;-30
2023/07/12 04:12:15;;;;;;;5.22;1.70;;;;;;;;;;5051679;28;20200;-28
2023/07/12 04:14:44;;;;;;;4.00;2.13;;;;;;;;;;5039590;28;20237;-30
2023/07/12 04:17:11;;;;;;;7.03;1.90;;;;;;;;;;5039069;28;20207;-29
2023/07/12 04:19:38;;;;;;;4.10;1.98;;;;;;;;;;5048077;28;20233;-26
2023/07/12 04:22:05;;;;;;;3.17;2.00;;;;;;;;;;5037057;28;20214;-29
2023/07/12 04:24:32;;;;;;;3.70;1.73;;;;;;;;;;5045925;28;20212;-30
2023/07/12 04:26:59;;;;;;;1.80;1.40;;;;;;;;;;5040722;28;20235;-29
2023/07/12 04:29:27;;;;;;;2.92;1.90;;;;;;;;;;5041612;28;20216;-28
2023/07/12 04:31:55;;;;;;;4.05;1.70;;;;;;;;;;5042141;28;20205;-29
2023/07/12 04:34:22;;;;;;;3.90;1.70;;;;;;;;;;5049408;28;20214;-29
2023/07/12 04:36:53;;;;;;;5.75;2.00;;;;;;;;;;5048446;28;20303;-29
2023/07/12 04:39:20;;;;;;;2.88;1.63;;;;;;;;;;5040116;28;20288;-28
2023/07/12 04:41:47;;;;;;;3.33;1.80;;;;;;;;;;5042126;28;20243;-29
2023/07/12 04:44:14;;;;;;;2.92;2.30;;;;;;;;;;5033924;28;20201;-30
2023/07/12 04:46:42;;;;;;;2.33;2.00;;;;;;;;;;5032821;28;20224;-30
2023/07/12 04:49:10;;;;;;;2.30;1.88;;;;;;;;;;5033805;28;20715;-30
2023/07/12 04:51:38;;;;;;;2.65;2.17;;;;;;;;;;5034876;28;20221;-30
2023/07/12 04:54:05;;;;;;;2.08;1.58;;;;;;;;;;5053111;28;20203;-31
2023/07/12 04:56:33;;;;;;;7.53;2.10;;;;;;;;;;5034664;28;20568;-30
2023/07/12 04:59:00;;;;;;;7.60;2.30;;;;;;;;;;5044521;28;20229;-29
2023/07/12 05:01:28;;;;;;;4.85;2.10;;;;;;;;;;5047930;28;20212;-30
2023/07/12 05:03:55;;;;;;;3.25;2.30;;;;;;;;;;5050816;28;20203;-31
2023/07/12 05:06:24;;;;;;;5.18;1.95;;;;;;;;;;5041216;28;20219;-29
2023/07/12 05:08:51;;;;;;;2.97;1.83;;;;;;;;;;5038942;28;20232;-29
2023/07/12 05:11:18;;;;;;;2.65;1.77;;;;;;;;;;5034502;28;20299;-28
2023/07/12 05:13:45;;;;;;;3.13;2.58;;;;;;;;;;5033986;28;20297;-30
2023/07/12 05:16:12;;;;;;;3.08;2.05;;;;;;;;;;5052690;28;20215;-28
2023/07/12 05:18:39;;;;;;;7.13;2.28;;;;;;;;;;5046358;28;20228;-28
2023/07/12 05:21:06;;;;;;;2.22;2.03;;;;;;;;;;5048368;28;20214;-30
2023/07/12 05:23:36;;;;;;;4.38;2.38;;;;;;;;;;5036115;28;20213;-29
2023/07/12 05:26:04;;;;;;;4.65;2.28;;;;;;;;;;5039488;28;20224;-28
2023/07/12 05:28:31;;;;;;;7.43;2.20;;;;;;;;;;5042741;28;20219;-30
2023/07/12 05:30:58;;;;;;;4.22;2.10;;;;;;;;;;5042094;28;20242;-30
2023/07/12 05:33:26;;;;;;;3.03;1.98;;;;;;;;;;5051435;28;20208;-30
2023/07/12 05:35:53;;;;;;;7.65;2.10;;;;;;;;;;5039338;28;20208;-31
2023/07/12 05:38:20;;;;;;;4.75;2.42;;;;;;;;;;5041510;28;20240;-31
2023/07/12 05:40:48;;;;;;;5.63;2.13;;;;;;;;;;5032858;28;20210;-29
2023/07/12 05:43:15;;;;;;;4.82;2.40;;;;;;;;;;5039095;28;20298;-31
2023/07/12 05:45:43;;;;;;;2.80;2.30;;;;;;;;;;5035480;28;20212;-30
2023/07/12 05:48:10;;;;;;;9.32;2.92;;;;;;;;;;5041853;28;20215;-30
2023/07/12 05:50:37;;;;;;;4.75;1.98;;;;;;;;;;5042822;28;20217;-32
2023/07/12 05:53:04;;;;;;;5.10;2.15;;;;;;;;;;5039926;28;20211;-28
2023/07/12 05:55:31;;;;;;;6.13;2.50;;;;;;;;;;5031523;28;20209;-31
2023/07/12 05:58:00;;;;;;;5.72;2.53;;;;;;;;;;5047487;28;20228;-30
2023/07/12 06:00:27;;;;;;;4.78;2.38;;;;;;;;;;5047328;28;20205;-31
2023/07/12 06:02:54;;;;;;;7.35;2.33;;;;;;;;;;5047083;28;20206;-29
2023/07/12 06:05:22;;;;;;;9.30;2.85;;;;;;;;;;5037819;28;20213;-29
2023/07/12 06:07:49;;;;;;;6.72;2.85;;;;;;;;;;5048889;28;20247;-28
2023/07/12 06:10:16;;;;;;;5.43;2.42;;;;;;;;;;5045203;28;20216;-27
2023/07/12 06:12:43;;;;;;;4.65;2.30;;;;;;;;;;5032083;28;20212;-30
2023/07/12 06:15:12;;;;;;;7.47;2.78;;;;;;;;;;5031554;28;20200;-29
2023/07/12 06:17:39;;;;;;;8.30;2.60;;;;;;;;;;5031139;28;20259;-28
2023/07/12 06:20:09;;;;;;;5.82;3.08;;;;;;;;;;5040796;28;20211;-29
2023/07/12 06:22:37;;;;;;;6.45;2.80;;;;;;;;;;5042066;28;20209;-31
2023/07/12 06:25:04;;;;;;;7.88;2.70;;;;;;;;;;5030603;28;20205;-30
2023/07/12 06:27:31;;;;;;;5.75;2.08;;;;;;;;;;5038051;28;20228;-31
2023/07/12 06:29:58;;;;;;;3.67;2.05;;;;;;;;;;5040154;28;20219;-31
2023/07/12 06:32:27;;;;;;;4.88;2.85;;;;;;;;;;5031702;28;20209;-31
2023/07/12 06:34:54;;;;;;;5.45;2.60;;;;;;;;;;5035479;28;20204;-27
2023/07/12 06:37:21;;;;;;;6.25;2.53;;;;;;;;;;5042068;28;20200;-31
2023/07/12 06:39:48;;;;;;;5.22;2.60;;;;;;;;;;5047946;28;20213;-31
2023/07/12 06:42:15;;;;;;;5.57;2.60;;;;;;;;;;5043644;28;20216;-28
2023/07/12 06:44:42;;;;;;;5.03;2.70;;;;;;;;;;5050856;28;20211;-30
2023/07/12 06:47:09;;;;;;;4.63;2.92;;;;;;;;;;5050556;28;20224;-29
2023/07/12 06:49:38;;;;;;;4.97;2.70;;;;;;;;;;5044907;28;20224;-28
2023/07/12 06:52:05;;;;;;;4.95;2.75;;;;;;;;;;5038189;28;21001;-30
2023/07/12 06:54:33;;;;;;;8.93;3.38;;;;;;;;;;5037048;28;20287;-30
2023/07/12 06:57:00;;;;;;;6.30;2.83;;;;;;;;;;5033714;28;20197;-27
2023/07/12 06:59:27;;;;;;;5.03;2.60;;;;;;;;;;5035220;28;20224;-29
2023/07/12 07:01:54;;;;;;;7.10;2.80;;;;;;;;;;5030346;28;20217;-31
2023/07/12 07:04:21;;;;;;;8.93;2.75;;;;;;;;;;5030523;28;20212;-29
2023/07/12 07:06:50;;;;;;;5.25;2.72;;;;;;;;;;5033392;28;20233;-31
2023/07/12 07:09:17;;;;;;;7.38;3.00;;;;;;;;;;5036785;28;20222;-30
2023/07/12 07:11:44;;;;;;;4.05;2.88;;;;;;;;;;5042144;28;20216;-30
2023/07/12 07:14:11;;;;;;;10.32;3.70;;;;;;;;;;5031861;28;20202;-32
2023/07/12 07:16:39;;;;;;;5.78;3.13;;;;;;;;;;5032101;28;20683;-29
2023/07/12 07:19:06;;;;;;;5.18;2.90;;;;;;;;;;5042658;28;20313;-30
2023/07/12 07:21:34;;;;;;;5.47;3.38;;;;;;;;;;5052104;28;20218;-28
2023/07/12 07:24:02;;;;;;;8.60;3.95;;;;;;;;;;5050530;28;20201;-28
2023/07/12 07:26:29;;;;;;;5.88;3.35;;;;;;;;;;5042213;28;20229;-30
2023/07/12 07:28:57;;;;;;;4.78;3.53;;;;;;;;;;5039982;28;20536;-30
2023/07/12 07:31:24;;;;;;;5.85;3.47;;;;;;;;;;5030058;28;20310;-29
2023/07/12 07:33:51;;;;;;;8.27;3.70;;;;;;;;;;5031930;28;20199;-30
2023/07/12 07:36:18;;;;;;;5.95;3.53;;;;;;;;;;5045084;28;20198;-27
2023/07/12 07:38:45;;;;;;;6.43;4.20;;;;;;;;;;5046164;28;20218;-31
2023/07/12 07:41:15;;;;;;;7.05;4.07;;;;;;;;;;5045594;28;20227;-31
2023/07/12 07:43:44;;;;;;;7.47;3.80;;;;;;;;;;5037783;28;20213;-29
2023/07/12 07:46:11;;;;;;;8.30;3.20;;;;;;;;;;5055032;28;20213;-29
2023/07/12 07:48:39;;;;;;;3.53;3.13;;;;;;;;;;5052590;28;20271;-29
2023/07/12 07:51:08;;;;;;;5.00;3.38;;;;;;;;;;5045809;28;20210;-29
2023/07/12 07:53:35;;;;;;;4.95;3.20;;;;;;;;;;5043041;28;20202;-29
2023/07/12 07:56:02;;;;;;;7.50;3.70;;;;;;;;;;5039890;28;20202;-28
2023/07/12 07:58:30;;;;;;;4.95;3.20;;;;;;;;;;5037344;28;20309;-30
2023/07/12 08:00:58;;;;;;;4.53;3.22;;;;;;;;;;5034020;28;20209;-28
2023/07/12 08:03:25;;;;;;;7.60;3.00;;;;;;;;;;5043035;28;20213;-30
2023/07/12 08:05:52;;;;;;;5.82;2.97;;;;;;;;;;5037274;28;20297;-29
2023/07/12 08:08:20;;;;;;;4.03;3.40;;;;;;;;;;5048337;28;20228;-28
2023/07/12 08:10:47;;;;;;;4.18;3.00;;;;;;;;;;5044508;28;20214;-31
2023/07/12 08:13:14;;;;;;;7.28;3.00;;;;;;;;;;5033249;28;20657;-29
2023/07/12 08:15:43;;;;;;;3.60;3.20;;;;;;;;;;5033763;28;20202;-30
2023/07/12 08:18:12;;;;;;;5.68;3.03;;;;;;;;;;5037355;28;20228;-29
2023/07/12 08:20:39;;;;;;;4.22;3.45;;;;;;;;;;5039102;28;20567;-29
2023/07/12 08:23:07;;;;;;;5.32;3.38;;;;;;;;;;5041186;28;20202;-30
2023/07/12 08:25:34;;;;;;;7.07;2.90;;;;;;;;;;5032606;28;20211;-29
2023/07/12 08:28:01;;;;;;;7.32;3.30;;;;;;;;;;5043972;28;20233;-28
2023/07/12 08:30:28;;;;;;;6.55;2.83;;;;;;;;;;5053258;28;20197;-32
2023/07/12 08:32:56;;;;;;;3.45;3.08;;;;;;;;;;5053422;28;20221;-30
2023/07/12 08:35:24;;;;;;;3.63;3.20;;;;;;;;;;5047238;28;20206;-27
2023/07/12 08:37:51;;;;;;;3.83;2.83;;;;;;;;;;5049877;28;20218;-29
2023/07/12 08:40:18;;;;;;;7.68;2.83;;;;;;;;;;5034723;28;20214;-29
2023/07/12 08:42:45;;;;;;;4.68;2.90;;;;;;;;;;5041185;28;20211;-30
2023/07/12 08:45:25;;;;;;;3.28;2.83;;;;;;;;;;5036797;28;20203;-31
2023/07/12 08:48:01;;;;;;;5.47;2.65;;;;;;;;;;5032745;28;20265;-30
2023/07/12 08:50:29;;;;;;;3.47;2.50;;;;;;;;;;5036109;28;20202;-31
2023/07/12 08:52:57;;;;;;;5.15;2.63;;;;;;;;;;5045311;28;20524;-27
2023/07/12 08:55:24;;;;;;;3.40;2.47;;;;;;;;;;5045558;28;20202;-30
2023/07/12 08:57:54;;;;;;;3.72;2.80;;;;;;;;;;5040798;28;20226;-30
2023/07/12 09:00:23;;;;;;;3.92;2.47;;;;;;;;;;5043429;28;20292;-31
2023/07/12 09:02:50;;;;;;;3.95;2.60;;;;;;;;;;5052683;28;20608;-32
2023/07/12 09:05:19;;;;;;;4.25;2.38;;;;;;;;;;5052886;28;20210;-31
2023/07/12 09:18:41;;;;;;;2.55;2.35;;;;;;;;;;5053352;28;20221;-39
2023/07/12 09:21:37;;;;;;;3.92;2.53;;;;;;;;;;5034867;28;20255;-38
2023/07/12 09:24:32;;;;;;;2.88;2.38;;;;;;;;;;5034184;28;20230;-43
2023/07/12 09:27:30;;;;;;;3.42;2.47;;;;;;;;;;5039143;28;20229;-36
2023/07/12 09:33:25;;;;;;;2.83;2.58;;;;;;;;;;5034795;28;20202;-41
2023/07/12 09:45:11;;;;;;;4.70;2.10;;;;;;;;;;5045511;28;20205;-35
2023/07/12 09:48:25;;;;;;;3.90;2.90;;;;;;;;;;5050828;28;20213;-42
2023/07/12 09:51:16;;;;;;;8.38;3.00;;;;;;;;;;5043684;28;20225;-37
2023/07/12 09:57:12;;;;;;;3.65;2.53;;;;;;;;;;5041260;28;20308;-42
2023/07/12 10:03:01;;;;;;;4.82;2.53;;;;;;;;;;5045098;28;20213;-37
2023/07/12 10:06:01;;;;;;;2.78;2.58;;;;;;;;;;5035339;28;20272;-41
2023/07/12 10:08:38;;;;;;;2.67;2.42;;;;;;;;;;5051118;28;20608;-36
2023/07/12 10:11:21;;;;;;;5.25;2.70;;;;;;;;;;5047713;28;20206;-39
2023/07/12 10:17:29;;;;;;;4.47;2.42;;;;;;;;;;5052661;28;20209;-40
2023/07/12 10:20:16;;;;;;;4.68;2.63;;;;;;;;;;5080827;28;20215;-37
2023/07/12 10:23:10;;;;;;;3.60;2.22;;;;;;;;;;5081661;28;20204;-40
2023/07/12 10:25:54;;;;;;;3.15;2.85;;;;;;;;;;5083479;28;20229;-37
2023/07/12 10:31:40;;;;;;;2.67;2.47;;;;;;;;;;5092261;28;20268;-37
2023/07/12 10:34:48;;;;;;;3.00;2.70;;;;;;;;;;5080723;28;20215;-40
2023/07/12 10:37:39;;;;;;;3.92;2.60;;;;;;;;;;5072418;28;20208;-39
2023/07/12 10:43:31;;;;;;;7.03;3.20;;;;;;;;;;5078486;28;20200;-38
2023/07/12 10:52:29;;;;;;;2.85;2.55;;;;;;;;;;5059167;28;20204;-37
2023/07/12 12:50:08;;;;;;;3.58;2.67;;;;;;;;;;4971304;28;20256;-29
2023/07/12 13:29:30;;;;;;;4.93;2.85;;;;;;;;;;5052948;28;20217;-31
2023/07/12 13:41:48;;;;;;;2.65;2.35;;;;;;;;;;5054841;28;20629;-32
2023/07/12 14:28:35;;;;;;;3.08;2.80;;;;;;;;;;4971657;28;20286;-34
2023/07/12 14:43:46;;;;;;;3.28;2.78;;;;;;;;;;5012379;28;20203;-31
2023/07/12 14:46:43;;;;;;;5.93;2.47;;;;;;;;;;5013325;28;20286;-34
2023/07/12 14:52:50;;;;;;;4.38;3.05;;;;;;;;;;5014354;28;20217;-35
2023/07/12 14:55:40;;;;;;;3.13;2.75;;;;;;;;;;5013130;28;20206;-29
2023/07/12 15:07:51;;;;;;;4.38;2.67;;;;;;;;;;5013205;28;20174;-32
2023/07/12 15:13:29;;;;;;;5.72;2.45;;;;;;;;;;5023815;28;20214;-34
2023/07/12 15:34:45;;;;;;;4.35;2.42;;;;;;;;;;5072921;28;20231;-31
2023/07/12 15:46:13;;;;;;;2.55;2.33;;;;;;;;;;5033499;28;20481;-33
2023/07/12 15:48:59;;;;;;;9.23;2.33;;;;;;;;;;5032734;28;20236;-34
2023/07/12 15:54:57;;;;;;;5.30;2.20;;;;;;;;;;5032814;28;20349;-31
2023/07/12 16:00:52;;;;;;;3.53;2.33;;;;;;;;;;5036604;28;20189;-31
2023/07/12 16:03:28;;;;;;;5.18;2.00;;;;;;;;;;5036569;28;20286;-32
2023/07/12 16:12:16;;;;;;;3.35;2.50;;;;;;;;;;4986714;28;20207;-34
2023/07/12 16:15:11;;;;;;;2.70;2.20;;;;;;;;;;5036581;28;20213;-33
2023/07/12 16:22:48;;;;;;;5.97;2.05;;;;;;;;;;5049250;28;20222;-30
2023/07/12 16:25:16;;;;;;;3.35;2.15;;;;;;;;;;5052162;28;20206;-27
2023/07/12 16:27:44;;;;;;;4.68;2.22;;;;;;;;;;5050420;28;20337;-30
2023/07/12 16:30:14;;;;;;;2.25;2.00;;;;;;;;;;5033970;28;20212;-27
2023/07/12 16:32:42;;;;;;;4.35;2.25;;;;;;;;;;5035073;28;20207;-30
2023/07/12 16:38:18;;;;;;;2.05;1.95;;;;;;;;;;5033669;28;20240;-30
2023/07/12 16:40:48;;;;;;;3.85;2.30;;;;;;;;;;5032481;28;20186;-30
2023/07/12 16:43:15;;;;;;;4.78;2.13;;;;;;;;;;5032934;28;20210;-27
2023/07/12 16:45:43;;;;;;;4.45;2.13;;;;;;;;;;5032039;28;20245;-30
2023/07/12 16:51:14;;;;;;;2.80;2.17;;;;;;;;;;5032308;28;20220;-32
2023/07/12 16:53:43;;;;;;;3.53;2.15;;;;;;;;;;5032292;28;20206;-31
2023/07/12 16:56:13;;;;;;;4.78;2.00;;;;;;;;;;5030101;28;20217;-35
2023/07/12 16:58:40;;;;;;;5.03;1.92;;;;;;;;;;5031498;28;20226;-32
2023/07/12 17:01:12;;;;;;;2.42;1.95;;;;;;;;;;5031819;28;20202;-30
2023/07/12 17:03:41;;;;;;;4.72;2.25;;;;;;;;;;5032198;28;20187;-32
2023/07/12 17:06:08;;;;;;;3.10;2.00;;;;;;;;;;5133115;23;20244;-29
2023/07/12 17:08:36;;;;;;;2.75;1.73;;;;;;;;;;5101637;28;20228;-30
2023/07/12 17:11:04;;;;;;;4.90;2.42;;;;;;;;;;5111800;28;20203;-30
2023/07/12 17:13:31;;;;;;;2.33;2.10;;;;;;;;;;5112366;28;20211;-30
2023/07/12 17:15:59;;;;;;;5.40;2.03;;;;;;;;;;5112476;28;20544;-27
2023/07/12 17:18:26;;;;;;;2.03;1.70;;;;;;;;;;5111794;28;20466;-31
2023/07/12 17:20:55;;;;;;;2.72;2.10;;;;;;;;;;5111658;28;20214;-27
2023/07/12 17:26:27;;;;;;;2.00;1.85;;;;;;;;;;5110375;28;20166;-30
2023/07/12 17:28:54;;;;;;;3.60;2.08;;;;;;;;;;5111602;28;20231;-28
2023/07/12 17:31:25;;;;;;;2.53;1.98;;;;;;;;;;5111742;28;20208;-28
2023/07/12 17:33:52;;;;;;;2.47;1.90;;;;;;;;;;5111165;28;20192;-29
2023/07/12 17:36:20;;;;;;;3.58;1.90;;;;;;;;;;5111373;28;20290;-30
2023/07/12 17:41:53;;;;;;;2.55;1.65;;;;;;;;;;5110441;28;20170;-32
2023/07/12 17:44:20;;;;;;;2.08;1.90;;;;;;;;;;5111509;28;20199;-28
2023/07/12 17:46:52;;;;;;;1.92;1.70;;;;;;;;;;5110908;28;20210;-28
2023/07/12 17:52:22;;;;;;;4.72;1.58;;;;;;;;;;5112091;28;20292;-27
2023/07/12 17:54:50;;;;;;;1.58;1.48;;;;;;;;;;5112530;28;20261;-28
2023/07/12 17:57:28;;;;;;;2.28;1.67;;;;;;;;;;5111841;28;20218;-28
2023/07/12 17:59:58;;;;;;;1.60;1.50;;;;;;;;;;5113343;28;20204;-31
2023/07/12 18:02:33;;;;;;;1.60;1.50;;;;;;;;;;5113622;28;20204;-29
2023/07/12 18:05:00;;;;;;;6.10;2.00;;;;;;;;;;5113691;28;20211;-27
2023/07/12 18:10:31;;;;;;;1.90;1.70;;;;;;;;;;5107974;28;20203;-28
2023/07/12 18:16:03;;;;;;;2.63;1.70;;;;;;;;;;5109523;28;20624;-29
2023/07/12 18:18:30;;;;;;;1.70;1.60;;;;;;;;;;5108194;28;20219;-30
2023/07/12 18:20:57;;;;;;;4.68;1.95;;;;;;;;;;5107741;28;20204;-28
2023/07/12 18:23:25;;;;;;;2.30;1.60;;;;;;;;;;5108759;28;20208;-30
2023/07/12 18:28:56;;;;;;;2.10;1.48;;;;;;;;;;5108753;28;20280;-29
2023/07/12 18:31:26;;;;;;;1.42;1.33;;;;;;;;;;5108115;28;20253;-29
2023/07/12 18:33:53;;;;;;;5.53;1.70;;;;;;;;;;5108604;28;20204;-29
2023/07/12 18:36:21;;;;;;;2.65;1.38;;;;;;;;;;5110024;28;20207;-28
2023/07/12 18:38:49;;;;;;;2.03;1.63;;;;;;;;;;5109922;28;20231;-28
2023/07/12 18:41:17;;;;;;;2.85;1.58;;;;;;;;;;5109498;28;20199;-28
2023/07/12 18:43:45;;;;;;;1.70;1.60;;;;;;;;;;5110231;28;20451;-29
2023/07/12 18:46:12;;;;;;;1.98;1.67;;;;;;;;;;5110279;28;20203;-26
2023/07/12 18:48:42;;;;;;;3.15;1.58;;;;;;;;;;5110625;28;20272;-29
2023/07/12 18:51:11;;;;;;;2.65;1.42;;;;;;;;;;5110316;28;20230;-30
2023/07/12 18:53:41;;;;;;;3.08;1.58;;;;;;;;;;5110601;28;20213;-27
2023/07/12 18:56:15;;;;;;;2.58;1.45;;;;;;;;;;5109278;28;20211;-28
2023/07/12 18:58:42;;;;;;;1.50;1.40;;;;;;;;;;5111514;28;20228;-28
2023/07/12 19:01:12;;;;;;;2.25;1.60;;;;;;;;;;5111804;28;20204;-28
2023/07/12 19:03:41;;;;;;;1.50;1.40;;;;;;;;;;5110164;28;20214;-29
2023/07/12 19:06:15;;;;;;;2.15;1.35;;;;;;;;;;5111684;28;21060;-28
2023/07/12 19:08:43;;;;;;;1.83;1.40;;;;;;;;;;5112223;28;20254;-28
2023/07/12 19:14:16;;;;;;;2.25;1.50;;;;;;;;;;5113558;28;20193;-28
2023/07/12 19:16:43;;;;;;;2.58;1.60;;;;;;;;;;5112616;28;20206;-29
2023/07/12 19:19:12;;;;;;;1.73;1.50;;;;;;;;;;5110682;28;20254;-30
2023/07/12 19:21:43;;;;;;;3.38;1.50;;;;;;;;;;5111064;28;20208;-29
2023/07/12 19:24:11;;;;;;;2.05;1.48;;;;;;;;;;5111408;28;20192;-29
2023/07/12 19:26:38;;;;;;;2.40;1.83;;;;;;;;;;5108225;28;20196;-27
2023/07/12 19:29:05;;;;;;;3.90;1.48;;;;;;;;;;5110169;28;20280;-29
2023/07/12 19:31:35;;;;;;;1.50;1.40;;;;;;;;;;5114228;28;20210;-27
2023/07/12 19:34:02;;;;;;;1.45;1.30;;;;;;;;;;5113685;28;20293;-26
2023/07/12 19:39:34;;;;;;;3.40;1.40;;;;;;;;;;5112571;28;20275;-30
2023/07/12 19:42:01;;;;;;;3.80;1.60;;;;;;;;;;5113436;28;20216;-32
2023/07/12 19:44:28;;;;;;;1.45;1.35;;;;;;;;;;5114316;28;20737;-29
2023/07/12 19:46:55;;;;;;;1.23;1.10;;;;;;;;;;5113974;28;20213;-30
2023/07/12 19:49:22;;;;;;;1.52;1.40;;;;;;;;;;5113418;28;20230;-32
2023/07/12 19:51:51;;;;;;;4.60;1.38;;;;;;;;;;5113635;28;20233;-27
2023/07/12 19:54:19;;;;;;;1.30;1.00;;;;;;;;;;5114452;28;20340;-26
2023/07/12 19:56:48;;;;;;;2.35;1.33;;;;;;;;;;5112956;28;20214;-28
2023/07/12 19:59:15;;;;;;;1.35;1.25;;;;;;;;;;5114166;28;20219;-27
2023/07/12 20:01:44;;;;;;;1.13;1.08;;;;;;;;;;5114368;28;20211;-29
2023/07/12 20:04:12;;;;;;;1.30;1.10;;;;;;;;;;5113802;28;20393;-28
2023/07/12 20:06:39;;;;;;;1.13;1.02;;;;;;;;;;5113255;28;20282;-31
2023/07/12 20:09:06;;;;;;;1.35;1.08;;;;;;;;;;5115681;28;20237;-26
2023/07/12 20:11:34;;;;;;;1.10;1.05;;;;;;;;;;5114251;28;20208;-28
2023/07/12 20:14:03;;;;;;;1.38;1.10;;;;;;;;;;5114087;28;20782;-30
2023/07/12 20:16:31;;;;;;;1.45;1.35;;;;;;;;;;5113385;28;20289;-28
2023/07/12 20:18:58;;;;;;;3.00;1.17;;;;;;;;;;5112746;28;20652;-28
2023/07/12 20:21:25;;;;;;;2.63;1.35;;;;;;;;;;5113420;28;20210;-32
2023/07/12 20:23:52;;;;;;;1.20;1.10;;;;;;;;;;5113425;28;20202;-30
2023/07/12 20:29:24;;;;;;;1.35;1.15;;;;;;;;;;5112992;28;20222;-30
2023/07/12 20:31:51;;;;;;;4.90;1.30;;;;;;;;;;5112935;28;20237;-29
2023/07/12 20:37:22;;;;;;;0.82;0.82;;;;;;;;;;5111997;28;20628;-29
2023/07/12 20:39:50;;;;;;;1.17;1.08;;;;;;;;;;5110644;28;20229;-29
2023/07/12 20:45:23;;;;;;;1.10;1.00;;;;;;;;;;5112514;28;20167;-27
2023/07/12 20:47:54;;;;;;;1.42;1.17;;;;;;;;;;5113608;28;20222;-30
2023/07/12 20:50:22;;;;;;;2.03;1.25;;;;;;;;;;5112038;28;20238;-28
2023/07/12 20:52:49;;;;;;;0.85;0.85;;;;;;;;;;5112754;28;20219;-28
2023/07/12 20:55:17;;;;;;;2.65;1.08;;;;;;;;;;5111723;28;20264;-30
2023/07/12 20:57:44;;;;;;;2.22;1.17;;;;;;;;;;5112064;28;20231;-27
2023/07/12 21:00:12;;;;;;;2.22;1.27;;;;;;;;;;5112411;28;20211;-29
2023/07/12 21:02:42;;;;;;;1.08;1.08;;;;;;;;;;5112482;28;20269;-28